Time;durP1;ratioP1;P1;durP2;ratioP2;P2;SDS_P1;SDS_P2;PMS_P1;PMS_P2;Temp;Humidity;BMP_temperature;BMP_pressure;BME280_temperature;BME280_humidity;BME280_pressure;Samples;Min_cycle;Max_cycle;Signal;HPM_P1;HPM_P2
2022/12/11 00:00:25;;;;;;;14.97;12.30;;;;;;;-0.50;100.00;95911.34;5045742;28;20563;-60
2022/12/11 00:02:52;;;;;;;14.47;12.57;;;;;;;-0.50;100.00;95917.31;5045622;28;20209;-59
2022/12/11 00:05:18;;;;;;;14.73;11.80;;;;;;;-0.52;100.00;95915.75;5047109;28;20206;-59
2022/12/11 00:07:45;;;;;;;13.73;11.70;;;;;;;-0.50;100.00;95916.53;5045483;28;20204;-62
2022/12/11 00:10:11;;;;;;;13.87;12.33;;;;;;;-0.50;100.00;95916.53;5046223;28;20202;-59
2022/12/11 00:12:38;;;;;;;15.90;12.63;;;;;;;-0.55;100.00;95923.75;5045213;28;20208;-61
2022/12/11 00:15:07;;;;;;;15.20;12.50;;;;;;;-0.58;100.00;95921.34;5045215;28;20208;-61
2022/12/11 00:17:33;;;;;;;14.80;12.60;;;;;;;-0.58;100.00;95924.78;5044710;28;20239;-60
2022/12/11 00:19:59;;;;;;;14.00;12.20;;;;;;;-0.54;100.00;95933.22;5045286;28;20636;-60
2022/12/11 00:22:29;;;;;;;13.07;11.23;;;;;;;-0.62;100.00;95932.84;5045444;28;20198;-60
2022/12/11 00:24:55;;;;;;;14.87;11.97;;;;;;;-0.61;100.00;95937.94;5045073;28;20217;-59
2022/12/11 00:27:22;;;;;;;15.43;11.93;;;;;;;-0.63;100.00;95936.34;5044647;28;20300;-59
2022/12/11 00:29:49;;;;;;;13.57;11.73;;;;;;;-0.58;100.00;95934.31;5044705;28;20199;-60
2022/12/11 00:32:17;;;;;;;14.53;12.07;;;;;;;-0.63;100.00;95932.00;5044444;28;20221;-61
2022/12/11 00:34:43;;;;;;;14.77;12.07;;;;;;;-0.54;100.00;95936.66;5045042;28;20216;-59
2022/12/11 00:37:10;;;;;;;14.50;12.27;;;;;;;-0.60;100.00;95933.56;5044114;28;20219;-60
2022/12/11 00:39:38;;;;;;;16.37;12.90;;;;;;;-0.64;100.00;95932.91;5043637;28;20225;-58
2022/12/11 00:42:05;;;;;;;14.27;12.60;;;;;;;-0.77;100.00;95932.00;5045456;28;20207;-59
2022/12/11 00:44:31;;;;;;;15.40;12.00;;;;;;;-0.74;100.00;95928.38;5044470;28;20214;-59
2022/12/11 00:46:58;;;;;;;14.00;11.77;;;;;;;-0.70;100.00;95922.91;5044554;28;20207;-60
2022/12/11 00:49:26;;;;;;;13.93;11.67;;;;;;;-0.74;100.00;95924.03;5044457;28;20201;-60
2022/12/11 00:51:52;;;;;;;14.37;12.57;;;;;;;-0.75;100.00;95921.53;5045012;28;20207;-59
2022/12/11 00:54:19;;;;;;;13.47;12.07;;;;;;;-0.79;100.00;95926.06;5044664;28;20198;-58
2022/12/11 00:56:45;;;;;;;13.93;11.90;;;;;;;-0.80;100.00;95924.41;5043820;28;20235;-61
2022/12/11 00:59:12;;;;;;;13.93;12.17;;;;;;;-0.81;100.00;95919.28;5044481;28;20242;-59
2022/12/11 01:01:38;;;;;;;15.47;12.03;;;;;;;-0.78;100.00;95926.91;5043866;28;20211;-60
2022/12/11 01:04:05;;;;;;;13.23;10.90;;;;;;;-0.82;100.00;95920.22;5044755;28;20196;-60
2022/12/11 01:06:33;;;;;;;13.63;11.93;;;;;;;-0.86;100.00;95924.78;5044890;28;20538;-60
2022/12/11 01:11:44;;;;;;;12.30;10.17;;;;;;;-1.02;100.00;95924.00;5045052;28;20204;-60
2022/12/11 01:14:11;;;;;;;14.67;11.90;;;;;;;-0.93;100.00;95933.84;5043536;28;20203;-61
2022/12/11 01:16:37;;;;;;;12.37;10.87;;;;;;;-0.91;100.00;95937.16;5045211;28;20224;-60
2022/12/11 01:19:04;;;;;;;12.47;10.43;;;;;;;-0.91;100.00;95928.56;5043779;28;20208;-60
2022/12/11 01:21:30;;;;;;;13.47;11.03;;;;;;;-0.89;100.00;95939.69;5044488;28;20568;-60
2022/12/11 01:23:58;;;;;;;13.07;10.53;;;;;;;-0.85;100.00;95941.19;5043932;28;20535;-59
2022/12/11 01:26:25;;;;;;;12.10;10.13;;;;;;;-0.83;100.00;95945.34;5043885;28;20551;-60
2022/12/11 01:28:52;;;;;;;13.17;10.73;;;;;;;-0.85;100.00;95951.56;5043233;28;20602;-60
2022/12/11 01:31:19;;;;;;;13.17;10.57;;;;;;;-0.88;100.00;95951.72;5044290;28;20227;-61
2022/12/11 01:33:46;;;;;;;12.63;10.77;;;;;;;-0.97;100.00;95957.47;5044755;28;20205;-60
2022/12/11 01:36:14;;;;;;;11.33;10.03;;;;;;;-0.89;100.00;95944.88;5044418;28;20203;-60
2022/12/11 01:38:41;;;;;;;11.80;10.57;;;;;;;-0.91;100.00;95951.91;5043538;28;20197;-60
2022/12/11 01:41:09;;;;;;;12.57;10.50;;;;;;;-0.97;100.00;95958.31;5043652;28;20205;-60
2022/12/11 01:43:56;;;;;;;12.33;10.10;;;;;;;-1.00;100.00;95958.50;5043285;28;20217;-60
2022/12/11 01:46:22;;;;;;;11.43;9.30;;;;;;;-1.05;100.00;95955.31;5043003;28;20213;-59
2022/12/11 01:48:49;;;;;;;11.00;9.53;;;;;;;-1.07;100.00;95964.97;5043225;28;20663;-58
2022/12/11 01:51:16;;;;;;;10.00;8.97;;;;;;;-1.11;100.00;95956.53;5043347;28;20212;-59
2022/12/11 01:53:46;;;;;;;9.80;8.80;;;;;;;-1.11;100.00;95956.53;5043546;28;20220;-60
2022/12/11 01:56:14;;;;;;;11.57;9.30;;;;;;;-1.14;100.00;95961.91;5043487;28;20218;-61
2022/12/11 01:58:44;;;;;;;10.40;9.30;;;;;;;-1.18;100.00;95964.75;5046385;28;20226;-59
2022/12/11 02:01:12;;;;;;;10.70;9.13;;;;;;;-1.12;100.00;95964.38;5048208;28;20230;-60
2022/12/11 02:03:38;;;;;;;9.80;8.80;;;;;;;-1.10;100.00;95972.94;5052318;28;20207;-59
2022/12/11 02:06:05;;;;;;;10.90;9.07;;;;;;;-1.21;100.00;95973.56;5049144;28;20540;-60
2022/12/11 02:08:32;;;;;;;10.13;9.13;;;;;;;-1.23;100.00;95972.78;5043999;28;20249;-61
2022/12/11 02:11:05;;;;;;;10.20;9.17;;;;;;;-1.38;100.00;95965.88;5044312;28;20209;-60
2022/12/11 02:13:38;;;;;;;9.57;8.43;;;;;;;-1.35;100.00;95970.06;5043325;28;20200;-61
2022/12/11 02:16:09;;;;;;;12.83;9.03;;;;;;;-1.42;100.00;95981.72;5043704;28;20208;-60
2022/12/11 02:18:39;;;;;;;10.10;8.83;;;;;;;-1.48;100.00;95977.69;5042970;28;20207;-59
2022/12/11 02:21:10;;;;;;;10.53;8.23;;;;;;;-1.55;100.00;95982.41;5043003;28;20644;-61
2022/12/11 02:23:54;;;;;;;9.33;8.43;;;;;;;-1.58;100.00;95971.38;5043127;28;20203;-61
2022/12/11 02:26:36;;;;;;;9.83;8.47;;;;;;;-1.56;100.00;95974.72;5043689;28;20279;-61
2022/12/11 02:29:07;;;;;;;10.17;8.67;;;;;;;-1.56;100.00;95970.34;5042870;28;20634;-60
2022/12/11 02:31:36;;;;;;;8.83;7.93;;;;;;;-1.60;100.00;95973.22;5043726;28;20214;-60
2022/12/11 02:34:07;;;;;;;9.40;8.40;;;;;;;-1.66;100.00;95968.34;5042452;28;20766;-61
2022/12/11 02:36:35;;;;;;;10.00;8.33;;;;;;;-1.70;100.00;95969.47;5042641;28;20199;-61
2022/12/11 02:39:03;;;;;;;10.93;8.57;;;;;;;-1.71;100.00;95966.03;5042648;28;20203;-60
2022/12/11 02:41:31;;;;;;;10.63;8.77;;;;;;;-1.69;100.00;95960.75;5043256;28;20212;-60
2022/12/11 02:43:57;;;;;;;10.60;8.93;;;;;;;-1.63;100.00;95969.03;5043736;28;20218;-59
2022/12/11 02:46:27;;;;;;;10.00;8.80;;;;;;;-1.71;100.00;95960.03;5042563;28;20202;-60
2022/12/11 02:48:54;;;;;;;13.13;10.87;;;;;;;-1.66;100.00;95958.00;5043006;28;20202;-61
2022/12/11 02:51:24;;;;;;;12.30;10.57;;;;;;;-1.66;100.00;95958.00;5043264;28;20539;-61
2022/12/11 02:53:54;;;;;;;11.93;9.63;;;;;;;-1.61;100.00;95966.34;5043035;28;20223;-60
2022/12/11 02:56:24;;;;;;;12.43;10.73;;;;;;;-1.62;100.00;95965.50;5042615;28;20195;-60
2022/12/11 02:58:55;;;;;;;13.57;10.07;;;;;;;-1.56;100.00;95970.34;5043382;28;20305;-60
2022/12/11 03:01:22;;;;;;;12.67;10.43;;;;;;;-1.48;100.00;95964.72;5043239;28;20207;-60
2022/12/11 03:03:50;;;;;;;13.13;10.70;;;;;;;-1.42;100.00;95968.75;5042244;28;20616;-60
2022/12/11 03:06:20;;;;;;;13.80;11.20;;;;;;;-1.35;100.00;95972.66;5042942;28;20203;-60
2022/12/11 03:08:46;;;;;;;13.17;11.50;;;;;;;-1.24;100.00;95971.09;5042247;28;20277;-60
2022/12/11 03:11:13;;;;;;;15.30;11.93;;;;;;;-1.19;100.00;95974.28;5042618;28;20648;-62
2022/12/11 03:13:41;;;;;;;12.03;10.70;;;;;;;-1.17;100.00;95969.03;5043940;28;20534;-59
2022/12/11 03:16:12;;;;;;;14.30;11.70;;;;;;;-1.22;100.00;95966.69;5046231;28;20267;-60
2022/12/11 03:18:43;;;;;;;13.23;11.47;;;;;;;-1.25;100.00;95971.22;5046086;28;20207;-61
2022/12/11 03:21:15;;;;;;;13.43;10.73;;;;;;;-1.21;100.00;95981.34;5050245;28;20208;-62
2022/12/11 03:23:47;;;;;;;12.73;10.80;;;;;;;-1.11;100.00;95971.25;5052219;28;20196;-60
2022/12/11 03:26:15;;;;;;;12.90;11.07;;;;;;;-1.13;100.00;95975.66;5062092;28;20196;-62
2022/12/11 03:28:45;;;;;;;14.53;12.07;;;;;;;-1.10;100.00;95973.72;5066152;28;20196;-60
2022/12/11 03:31:15;;;;;;;14.50;12.73;;;;;;;-1.09;100.00;95978.00;5047949;28;20651;-61
2022/12/11 03:33:44;;;;;;;13.57;11.50;;;;;;;-1.11;100.00;95977.28;5044634;28;20208;-60
2022/12/11 03:36:15;;;;;;;14.00;11.77;;;;;;;-1.09;100.00;95969.38;5042243;28;20648;-59
2022/12/11 03:38:44;;;;;;;15.67;12.63;;;;;;;-1.09;100.00;95980.59;5041630;28;20219;-61
2022/12/11 03:41:11;;;;;;;16.73;13.03;;;;;;;-1.07;100.00;95983.13;5041798;28;20658;-60
2022/12/11 03:43:38;;;;;;;17.00;13.27;;;;;;;-1.05;100.00;95992.47;5042426;28;20223;-59
2022/12/11 03:46:06;;;;;;;16.93;14.27;;;;;;;-0.93;100.00;95995.28;5041763;28;20701;-59
2022/12/11 03:48:34;;;;;;;17.47;14.13;;;;;;;-0.97;100.00;95996.38;5041682;28;20210;-60
2022/12/11 03:51:01;;;;;;;18.33;15.27;;;;;;;-0.98;100.00;95995.53;5042946;28;20212;-60
2022/12/11 03:53:29;;;;;;;17.60;14.10;;;;;;;-1.05;100.00;96002.84;5042019;28;20211;-60
2022/12/11 03:55:57;;;;;;;18.47;15.50;;;;;;;-1.01;100.00;95996.56;5041922;28;20660;-60
2022/12/11 03:58:24;;;;;;;16.73;14.27;;;;;;;-0.96;100.00;95996.31;5041727;28;20558;-61
2022/12/11 04:00:50;;;;;;;18.77;15.70;;;;;;;-0.87;100.00;96000.09;5042067;28;20232;-59
2022/12/11 04:03:17;;;;;;;19.47;15.03;;;;;;;-0.86;100.00;96001.78;5043270;28;20201;-60
2022/12/11 04:05:45;;;;;;;18.87;15.53;;;;;;;-0.88;100.00;96004.47;5042112;28;20212;-60
2022/12/11 04:08:12;;;;;;;21.10;16.37;;;;;;;-0.97;100.00;95998.97;5041140;28;20229;-61
2022/12/11 04:10:41;;;;;;;19.07;15.87;;;;;;;-1.05;100.00;95989.88;5042123;28;20207;-59
2022/12/11 04:13:08;;;;;;;19.83;16.43;;;;;;;-1.09;100.00;95988.38;5042354;28;20219;-60
2022/12/11 04:15:34;;;;;;;20.17;16.00;;;;;;;-1.16;100.00;95978.44;5042126;28;20207;-61
2022/12/11 04:26:16;;;;;;;20.57;15.40;;;;;;;-1.32;100.00;95988.88;5041570;28;20253;-60
2022/12/11 04:28:45;;;;;;;18.20;14.50;;;;;;;-1.52;100.00;95994.34;5052639;28;20197;-60
2022/12/11 04:31:12;;;;;;;18.00;14.67;;;;;;;-1.58;100.00;95990.34;5051050;28;20196;-60
2022/12/11 04:33:39;;;;;;;18.17;14.90;;;;;;;-1.63;100.00;95983.75;5047399;28;20212;-61
2022/12/11 04:36:07;;;;;;;17.50;13.90;;;;;;;-1.68;100.00;95986.59;5046679;28;20256;-61
2022/12/11 04:38:33;;;;;;;18.33;14.10;;;;;;;-1.73;100.00;95982.56;5045000;28;20228;-62
2022/12/11 04:41:00;;;;;;;18.10;14.33;;;;;;;-1.81;100.00;95984.78;5046071;28;20235;-61
2022/12/11 04:43:28;;;;;;;16.80;13.83;;;;;;;-1.92;100.00;95987.97;5044665;28;20700;-60
2022/12/11 04:46:01;;;;;;;17.67;13.40;;;;;;;-2.03;100.00;95991.13;5044910;28;20210;-61
2022/12/11 04:48:27;;;;;;;17.07;13.90;;;;;;;-2.01;100.00;95994.47;5045629;28;20205;-60
2022/12/11 04:50:54;;;;;;;16.30;13.43;;;;;;;-2.16;100.00;95992.69;5045896;28;20532;-60
2022/12/11 04:53:20;;;;;;;14.17;12.10;;;;;;;-2.36;100.00;95999.84;5044356;28;20215;-60
2022/12/11 04:55:47;;;;;;;15.27;12.63;;;;;;;-2.43;100.00;95995.91;5045348;28;20211;-61
2022/12/11 04:58:13;;;;;;;14.80;11.83;;;;;;;-2.34;100.00;95996.28;5044778;28;20540;-60
2022/12/11 05:00:42;;;;;;;13.40;11.37;;;;;;;-2.53;100.00;95990.41;5045711;28;20238;-61
2022/12/11 05:03:08;;;;;;;14.27;11.57;;;;;;;-2.61;100.00;95997.72;5045769;28;20206;-61
2022/12/11 05:05:35;;;;;;;15.17;11.93;;;;;;;-2.67;100.00;95995.47;5046494;28;20219;-61
2022/12/11 05:08:01;;;;;;;13.33;10.97;;;;;;;-2.81;100.00;95995.31;5044886;28;20619;-62
2022/12/11 05:10:28;;;;;;;15.07;11.73;;;;;;;-2.87;100.00;95986.13;5047837;28;20222;-62
2022/12/11 05:12:54;;;;;;;15.83;11.90;;;;;;;-2.93;100.00;95983.84;5045947;28;20207;-60
2022/12/11 05:15:21;;;;;;;16.30;11.77;;;;;;;-2.82;100.00;95984.13;5046119;28;20211;-60
2022/12/11 05:17:49;;;;;;;14.57;10.77;;;;;;;-2.82;100.00;95983.28;5043798;28;20225;-62
2022/12/11 05:20:15;;;;;;;13.43;10.93;;;;;;;-2.96;100.00;95985.75;5044120;28;20664;-61
2022/12/11 05:22:42;;;;;;;13.50;10.70;;;;;;;-2.93;100.00;95975.25;5043271;28;20203;-61
2022/12/11 05:25:09;;;;;;;15.07;11.30;;;;;;;-3.01;100.00;95978.22;5044107;28;20204;-60
2022/12/11 05:27:36;;;;;;;14.33;10.77;;;;;;;-2.95;100.00;95971.91;5044106;28;20230;-60
2022/12/11 05:30:03;;;;;;;13.87;10.00;;;;;;;-3.04;100.00;95973.22;5044527;28;20218;-62
2022/12/11 05:32:30;;;;;;;13.93;10.80;;;;;;;-3.19;100.00;95985.16;5045197;28;20207;-59
2022/12/11 05:34:58;;;;;;;13.03;10.73;;;;;;;-3.34;100.00;95979.94;5043852;28;20544;-62
2022/12/11 05:37:24;;;;;;;14.70;11.23;;;;;;;-3.41;100.00;95989.72;5044173;28;20211;-60
2022/12/11 05:39:51;;;;;;;14.00;10.43;;;;;;;-3.44;100.00;95989.03;5043466;28;20217;-60
2022/12/11 05:42:17;;;;;;;16.97;10.73;;;;;;;-3.42;100.00;95995.81;5044745;28;20219;-59
2022/12/11 05:44:44;;;;;;;13.47;10.17;;;;;;;-3.45;100.00;95989.94;5043028;28;20649;-60
2022/12/11 05:47:10;;;;;;;14.07;10.53;;;;;;;-3.45;100.00;95998.53;5043822;28;20204;-60
2022/12/11 05:49:37;;;;;;;12.37;9.47;;;;;;;-3.49;100.00;95986.69;5043123;28;20234;-60
2022/12/11 05:52:05;;;;;;;12.93;10.83;;;;;;;-3.42;100.00;95993.22;5043600;28;20218;-61
2022/12/11 05:54:32;;;;;;;15.37;10.33;;;;;;;-3.41;100.00;95989.72;5043092;28;20203;-61
2022/12/11 05:56:58;;;;;;;13.10;10.67;;;;;;;-3.46;100.00;95991.69;5044218;28;20214;-62
2022/12/11 05:59:25;;;;;;;12.87;9.87;;;;;;;-3.50;100.00;95990.16;5043736;28;20235;-60
2022/12/11 06:01:51;;;;;;;14.73;11.10;;;;;;;-3.48;100.00;95997.84;5043961;28;20235;-61
2022/12/11 06:04:18;;;;;;;12.57;9.67;;;;;;;-3.49;100.00;95991.84;5043422;28;20537;-61
2022/12/11 06:06:44;;;;;;;12.07;9.93;;;;;;;-3.43;100.00;95991.53;5043549;28;20217;-60
2022/12/11 06:09:17;;;;;;;12.83;9.90;;;;;;;-3.45;100.00;95992.53;5043329;28;20200;-59
2022/12/11 06:11:43;;;;;;;13.97;10.13;;;;;;;-3.47;100.00;95995.19;5043342;28;20206;-60
2022/12/11 06:14:11;;;;;;;12.37;10.20;;;;;;;-3.52;100.00;95992.00;5042948;28;20211;-62
2022/12/11 06:16:37;;;;;;;11.77;9.03;;;;;;;-3.45;100.00;95993.38;5043199;28;20664;-60
2022/12/11 06:19:04;;;;;;;10.90;9.60;;;;;;;-3.54;100.00;95993.81;5042851;28;20246;-60
2022/12/11 06:21:32;;;;;;;11.30;9.47;;;;;;;-3.46;100.00;95994.28;5043252;28;20220;-59
2022/12/11 06:24:00;;;;;;;12.03;9.17;;;;;;;-3.52;100.00;95989.41;5042921;28;20215;-60
2022/12/11 06:26:28;;;;;;;12.10;9.67;;;;;;;-3.59;100.00;95985.47;5042933;28;20217;-62
2022/12/11 06:28:55;;;;;;;13.90;9.07;;;;;;;-3.56;100.00;95987.88;5042354;28;20563;-60
2022/12/11 06:31:21;;;;;;;11.77;9.40;;;;;;;-3.59;100.00;95985.47;5043190;28;20537;-60
2022/12/11 06:33:48;;;;;;;12.00;9.57;;;;;;;-3.61;100.00;95990.69;5042846;28;20549;-60
2022/12/11 06:36:16;;;;;;;11.33;9.13;;;;;;;-3.57;100.00;95986.22;5043110;28;20206;-61
2022/12/11 06:38:43;;;;;;;11.50;9.40;;;;;;;-3.55;100.00;95989.56;5042164;28;20223;-60
2022/12/11 06:41:09;;;;;;;12.20;9.63;;;;;;;-3.53;100.00;95987.72;5043164;28;20214;-62
2022/12/11 06:43:38;;;;;;;10.80;8.97;;;;;;;-3.44;100.00;95995.06;5042612;28;20199;-60
2022/12/11 06:46:06;;;;;;;10.93;9.23;;;;;;;-3.40;100.00;95991.38;5042239;28;20594;-60
2022/12/11 06:48:32;;;;;;;11.10;9.50;;;;;;;-3.42;100.00;95997.53;5042206;28;20204;-60
2022/12/11 06:50:59;;;;;;;11.83;9.33;;;;;;;-3.43;100.00;95990.69;5042848;28;20210;-61
2022/12/11 06:53:25;;;;;;;11.50;8.93;;;;;;;-3.43;100.00;95988.13;5041338;28;20206;-62
2022/12/11 06:55:52;;;;;;;10.10;8.57;;;;;;;-3.46;100.00;95986.53;5045979;28;20200;-63
2022/12/11 06:58:18;;;;;;;10.73;8.83;;;;;;;-3.41;100.00;95988.88;5044833;28;20235;-62
2022/12/11 07:00:46;;;;;;;11.00;8.70;;;;;;;-3.35;100.00;95994.59;5047496;28;20716;-60
2022/12/11 07:03:13;;;;;;;10.93;8.67;;;;;;;-3.39;100.00;96003.41;5046222;28;20217;-61
2022/12/11 07:05:39;;;;;;;10.57;8.57;;;;;;;-3.49;100.00;95997.00;5042900;28;20203;-60
2022/12/11 07:08:06;;;;;;;11.03;9.13;;;;;;;-3.53;100.00;95987.72;5042572;28;20543;-60
2022/12/11 07:10:33;;;;;;;11.20;8.63;;;;;;;-3.55;100.00;95986.97;5042687;28;20207;-61
2022/12/11 07:12:59;;;;;;;10.87;8.40;;;;;;;-3.60;100.00;95994.94;5043198;28;20207;-63
2022/12/11 07:15:27;;;;;;;10.37;8.90;;;;;;;-3.62;100.00;95990.78;5041847;28;20620;-60
2022/12/11 07:17:55;;;;;;;11.43;8.83;;;;;;;-3.56;100.00;95996.47;5042677;28;20208;-61
2022/12/11 07:20:22;;;;;;;10.53;9.10;;;;;;;-3.62;100.00;95996.78;5042854;28;20208;-60
2022/12/11 07:22:49;;;;;;;11.07;8.97;;;;;;;-3.63;100.00;95994.25;5042177;28;20222;-60
2022/12/11 07:25:15;;;;;;;12.43;9.73;;;;;;;-3.52;100.00;95998.00;5042170;28;20207;-61
2022/12/11 07:27:42;;;;;;;11.37;8.63;;;;;;;-3.53;100.00;96001.50;5041865;28;20202;-60
2022/12/11 07:30:10;;;;;;;12.70;9.30;;;;;;;-3.54;100.00;95998.97;5042117;28;20195;-60
2022/12/11 07:32:36;;;;;;;12.63;9.63;;;;;;;-3.54;100.00;95993.81;5042687;28;20521;-63
2022/12/11 07:35:05;;;;;;;12.00;9.93;;;;;;;-3.56;100.00;95995.63;5042225;28;20649;-61
2022/12/11 07:37:32;;;;;;;12.30;9.80;;;;;;;-3.52;100.00;95997.16;5043036;28;20203;-59
2022/12/11 07:39:58;;;;;;;14.00;10.17;;;;;;;-3.54;100.00;95998.97;5041685;28;20230;-61
2022/12/11 07:42:25;;;;;;;12.57;9.90;;;;;;;-3.53;100.00;96000.66;5042559;28;20218;-62
2022/12/11 07:44:51;;;;;;;11.37;9.37;;;;;;;-3.48;100.00;95993.53;5042145;28;20203;-62
2022/12/11 07:47:18;;;;;;;12.90;10.10;;;;;;;-3.58;100.00;95989.72;5042417;28;20220;-61
2022/12/11 07:49:44;;;;;;;11.67;9.33;;;;;;;-3.54;100.00;95998.97;5042287;28;20195;-60
2022/12/11 07:52:12;;;;;;;14.30;10.70;;;;;;;-3.54;100.00;95998.97;5042790;28;20222;-59
2022/12/11 07:54:39;;;;;;;13.60;9.63;;;;;;;-3.42;100.00;95997.53;5041741;28;20644;-62
2022/12/11 07:57:05;;;;;;;13.67;10.17;;;;;;;-3.41;100.00;96000.06;5042432;28;20631;-61
2022/12/11 07:59:32;;;;;;;10.90;9.53;;;;;;;-3.24;100.00;96007.84;5041649;28;20242;-62
2022/12/11 08:01:59;;;;;;;11.57;9.80;;;;;;;-3.18;100.00;96004.09;5042568;28;20584;-60
2022/12/11 08:04:25;;;;;;;12.90;9.90;;;;;;;-3.18;100.00;95997.19;5042327;28;20218;-60
2022/12/11 08:06:52;;;;;;;11.77;10.03;;;;;;;-3.14;100.00;95998.69;5042260;28;20219;-60
2022/12/11 08:09:21;;;;;;;11.80;9.50;;;;;;;-3.06;100.00;95996.56;5041742;28;20525;-60
2022/12/11 08:11:48;;;;;;;13.40;10.07;;;;;;;-2.98;100.00;96003.13;5044648;28;20211;-60
2022/12/11 08:14:15;;;;;;;13.67;10.67;;;;;;;-3.01;100.00;96002.34;5045887;28;20218;-62
2022/12/11 08:16:42;;;;;;;15.07;11.57;;;;;;;-2.91;100.00;96000.16;5045884;28;20543;-60
2022/12/11 08:19:09;;;;;;;13.30;10.63;;;;;;;-2.84;100.00;95998.06;5045825;28;20366;-61
2022/12/11 08:21:36;;;;;;;13.57;10.77;;;;;;;-2.78;100.00;96006.34;5046202;28;20538;-60
2022/12/11 08:24:02;;;;;;;13.73;10.80;;;;;;;-2.68;100.00;96002.38;5044044;28;20576;-61
2022/12/11 08:26:31;;;;;;;12.53;9.83;;;;;;;-2.68;100.00;96007.56;5045439;28;20220;-62
2022/12/11 08:28:58;;;;;;;12.33;10.20;;;;;;;-2.61;100.00;96008.91;5045186;28;20235;-60
2022/12/11 08:31:25;;;;;;;13.03;10.70;;;;;;;-2.53;100.00;96003.34;5045427;28;20193;-61
2022/12/11 08:33:52;;;;;;;15.20;11.63;;;;;;;-2.46;100.00;96002.09;5045105;28;20290;-60
2022/12/11 08:36:21;;;;;;;14.93;11.17;;;;;;;-2.41;100.00;96007.03;5045365;28;20208;-60
2022/12/11 08:38:47;;;;;;;16.13;11.40;;;;;;;-2.32;100.00;96014.31;5045149;28;20223;-60
2022/12/11 08:41:16;;;;;;;16.00;11.87;;;;;;;-2.28;100.00;96005.47;5045287;28;21463;-59
2022/12/11 08:43:44;;;;;;;15.40;12.53;;;;;;;-2.23;100.00;96008.66;5044533;28;20207;-59
2022/12/11 08:46:12;;;;;;;14.77;11.70;;;;;;;-2.21;100.00;96001.63;5045351;28;20203;-60
2022/12/11 08:48:40;;;;;;;16.07;12.03;;;;;;;-2.05;100.00;96007.66;5044898;28;20199;-61
2022/12/11 08:51:08;;;;;;;15.27;12.43;;;;;;;-1.98;100.00;96003.81;5045032;28;20550;-61
2022/12/11 08:53:34;;;;;;;14.03;11.50;;;;;;;-1.93;100.00;96000.97;5045215;28;20210;-61
2022/12/11 08:56:01;;;;;;;15.03;11.27;;;;;;;-1.85;100.00;96004.84;5045061;28;20203;-60
2022/12/11 08:58:28;;;;;;;14.77;11.83;;;;;;;-1.70;100.00;95997.97;5045967;28;20209;-61
2022/12/11 09:00:56;;;;;;;14.70;11.53;;;;;;;-1.40;99.49;95992.81;5049022;28;20252;-61
2022/12/11 09:03:23;;;;;;;13.93;10.97;;;;;;;-0.66;97.83;95993.66;5050432;28;20221;-61
2022/12/11 09:05:49;;;;;;;13.57;11.03;;;;;;;-0.58;93.95;95991.44;5051789;28;20203;-59
2022/12/11 09:08:16;;;;;;;12.73;10.87;;;;;;;-0.55;94.39;95986.06;5049159;28;20214;-60
2022/12/11 09:10:42;;;;;;;11.87;10.07;;;;;;;-0.48;94.11;95979.56;5048472;28;20221;-60
2022/12/11 09:13:09;;;;;;;15.23;11.47;;;;;;;-0.67;95.56;95985.03;5050923;28;20206;-61
2022/12/11 09:15:37;;;;;;;13.97;11.10;;;;;;;-0.84;95.54;95980.00;5049737;28;20206;-61
2022/12/11 09:18:05;;;;;;;12.50;10.67;;;;;;;-0.85;93.10;95982.72;5045867;28;21419;-61
2022/12/11 09:20:31;;;;;;;13.00;10.10;;;;;;;-0.97;96.99;95998.97;5046009;28;20233;-60
2022/12/11 09:22:58;;;;;;;12.07;10.60;;;;;;;-0.84;96.64;95992.97;5044232;28;20634;-61
2022/12/11 09:25:24;;;;;;;12.27;10.00;;;;;;;-0.68;95.77;95985.13;5048782;28;20270;-62
2022/12/11 09:27:51;;;;;;;11.50;9.87;;;;;;;-0.46;94.99;95982.91;5051882;28;20234;-59
2022/12/11 09:30:17;;;;;;;13.53;11.03;;;;;;;-0.44;95.26;95988.00;5053011;28;20209;-60
2022/12/11 09:32:44;;;;;;;14.47;11.23;;;;;;;-0.54;93.18;95987.75;5048748;28;20204;-60
2022/12/11 09:35:12;;;;;;;14.73;11.47;;;;;;;-0.24;91.26;95991.06;5047378;28;20206;-62
2022/12/11 09:37:39;;;;;;;13.90;10.17;;;;;;;-0.34;90.87;95984.75;5043103;28;20210;-60
2022/12/11 09:40:06;;;;;;;11.17;9.50;;;;;;;-0.21;92.28;95990.88;5047129;28;20234;-62
2022/12/11 09:42:47;;;;;;;13.20;9.63;;;;;;;-0.13;94.09;95978.25;5046750;28;20344;-60
2022/12/11 09:45:15;;;;;;;12.83;10.03;;;;;;;-0.56;93.71;95976.59;5046521;28;20201;-60
2022/12/11 09:47:43;;;;;;;12.27;10.63;;;;;;;-0.53;93.54;95974.66;5047897;28;20638;-59
2022/12/11 09:50:17;;;;;;;11.43;9.63;;;;;;;-0.74;93.15;95964.72;5047920;28;20193;-60
2022/12/11 09:52:54;;;;;;;13.37;10.00;;;;;;;-0.40;90.15;95964.38;5046763;28;20209;-60
2022/12/11 09:55:23;;;;;;;11.73;10.00;;;;;;;-0.51;90.57;95959.00;5048774;28;20200;-60
2022/12/11 09:57:57;;;;;;;11.00;9.80;;;;;;;-0.09;86.95;95966.75;5047021;28;20638;-61
2022/12/11 10:00:27;;;;;;;13.50;10.40;;;;;;;-0.57;88.36;95954.19;5047743;28;20669;-59
2022/12/11 10:03:19;;;;;;;11.13;9.90;;;;;;;-0.67;96.15;95955.63;5047912;28;20206;-60
2022/12/11 10:05:52;;;;;;;11.30;9.80;;;;;;;-0.77;95.45;95950.16;5049612;28;20209;-60
2022/12/11 10:08:23;;;;;;;11.63;9.90;;;;;;;-0.51;96.06;95946.00;5049316;28;20278;-61
2022/12/11 10:10:55;;;;;;;12.07;10.77;;;;;;;-0.26;94.98;95937.53;5044674;28;20215;-59
2022/12/11 10:13:29;;;;;;;11.70;10.07;;;;;;;-0.07;91.73;95935.44;5044629;28;20208;-62
2022/12/11 10:16:00;;;;;;;12.23;10.23;;;;;;;-0.02;93.04;95929.06;5045526;28;20321;-60
2022/12/11 10:18:28;;;;;;;12.00;10.03;;;;;;;0.20;92.74;95920.72;5044417;28;20214;-60
2022/12/11 10:20:56;;;;;;;11.73;10.07;;;;;;;0.61;91.44;95915.44;5046550;28;20222;-60
2022/12/11 10:23:27;;;;;;;11.77;10.57;;;;;;;0.54;90.02;95910.72;5045230;28;20214;-59
2022/12/11 10:26:00;;;;;;;11.33;9.73;;;;;;;0.86;88.72;95915.47;5045666;28;20210;-59
2022/12/11 10:28:28;;;;;;;12.27;10.70;;;;;;;0.98;85.33;95901.66;5044860;28;20213;-60
2022/12/11 10:31:01;;;;;;;12.30;10.27;;;;;;;0.79;86.92;95903.81;5047014;28;20211;-59
2022/12/11 10:33:32;;;;;;;11.87;10.47;;;;;;;0.79;83.68;95901.22;5046556;28;20199;-60
2022/12/11 10:36:01;;;;;;;12.43;11.13;;;;;;;0.70;86.13;95901.84;5046404;28;20194;-59
2022/12/11 10:38:29;;;;;;;13.07;11.43;;;;;;;1.18;83.60;95896.84;5044703;28;20199;-60
2022/12/11 10:40:58;;;;;;;12.67;11.07;;;;;;;1.42;82.04;95895.16;5045283;28;20234;-61
2022/12/11 10:43:34;;;;;;;13.40;11.43;;;;;;;1.10;85.15;95894.78;5044650;28;20217;-59
2022/12/11 10:46:01;;;;;;;12.90;11.50;;;;;;;0.87;88.53;95888.53;5045511;28;20191;-60
2022/12/11 10:48:29;;;;;;;13.40;11.70;;;;;;;0.56;89.03;95893.28;5045144;28;20650;-60
2022/12/11 10:50:58;;;;;;;14.43;11.67;;;;;;;0.70;87.09;95891.44;5045968;28;20195;-59
2022/12/11 10:53:27;;;;;;;14.87;12.87;;;;;;;0.67;85.63;95886.44;5048130;28;20214;-60
2022/12/11 10:55:54;;;;;;;14.50;12.10;;;;;;;0.47;90.71;95882.53;5049844;28;20203;-60
2022/12/11 10:58:23;;;;;;;12.47;11.03;;;;;;;0.43;92.43;95882.81;5049085;28;20210;-61
2022/12/11 11:01:03;;;;;;;11.60;10.40;;;;;;;0.33;90.13;95885.19;5048396;28;20230;-60
2022/12/11 11:03:30;;;;;;;15.00;11.23;;;;;;;0.35;92.82;95869.50;5044386;28;20232;-62
2022/12/11 11:06:06;;;;;;;13.43;11.40;;;;;;;0.28;91.48;95865.66;5049074;28;20306;-61
2022/12/11 11:08:43;;;;;;;14.07;11.90;;;;;;;0.07;91.78;95869.63;5046495;28;20641;-61
2022/12/11 11:11:20;;;;;;;14.20;11.77;;;;;;;0.07;93.99;95874.81;5046196;28;20656;-60
2022/12/11 11:13:46;;;;;;;13.87;12.40;;;;;;;0.40;87.96;95872.63;5049514;28;20207;-62
2022/12/11 11:16:16;;;;;;;14.40;12.20;;;;;;;0.20;88.23;95866.13;5051240;28;20221;-60
2022/12/11 11:18:49;;;;;;;17.33;13.97;;;;;;;0.10;91.15;95861.63;5051296;28;20210;-60
2022/12/11 11:21:16;;;;;;;14.90;11.93;;;;;;;0.00;93.08;95859.59;5050435;28;20219;-60
2022/12/11 11:23:44;;;;;;;14.63;11.97;;;;;;;-0.10;97.19;95853.34;5046659;28;20225;-60
2022/12/11 11:26:11;;;;;;;14.90;12.73;;;;;;;0.06;93.83;95854.97;5047146;28;20659;-60
2022/12/11 11:28:40;;;;;;;13.63;11.67;;;;;;;-0.09;92.63;95848.97;5048492;28;20222;-60